createdAt,value
2022-12-12T00:01:04.180Z,12.70
2022-12-12T00:03:31.841Z,14.30
2022-12-12T00:05:59.172Z,12.70
2022-12-12T00:08:26.231Z,13.67
2022-12-12T00:10:53.157Z,13.37
2022-12-12T00:13:20.175Z,12.90
2022-12-12T00:15:47.150Z,12.00
2022-12-12T00:18:14.103Z,13.50
2022-12-12T00:20:41.092Z,11.77
2022-12-12T00:23:08.148Z,12.67
2022-12-12T00:25:35.758Z,12.97
2022-12-12T00:28:02.739Z,12.10
2022-12-12T00:30:30.187Z,11.33
2022-12-12T00:32:57.178Z,11.37
2022-12-12T00:35:24.567Z,11.93
2022-12-12T00:37:52.004Z,10.97
2022-12-12T00:40:19.138Z,11.30
2022-12-12T00:42:46.028Z,12.20
2022-12-12T00:45:13.156Z,11.33
2022-12-12T00:47:40.192Z,13.40
2022-12-12T00:50:08.442Z,12.20
2022-12-12T00:52:35.522Z,11.00
2022-12-12T00:55:02.549Z,13.10
2022-12-12T00:57:29.473Z,12.93
2022-12-12T00:59:56.458Z,12.60
2022-12-12T01:02:27.946Z,13.80
2022-12-12T01:04:55.297Z,13.30
2022-12-12T01:07:22.221Z,12.77
2022-12-12T01:09:49.202Z,12.10
2022-12-12T01:12:16.249Z,13.47
2022-12-12T01:14:43.295Z,11.90
2022-12-12T01:17:10.347Z,11.73
2022-12-12T01:19:37.293Z,11.43
2022-12-12T01:22:04.271Z,11.37
2022-12-12T01:24:31.706Z,11.10
2022-12-12T01:26:58.662Z,10.80
2022-12-12T01:29:25.707Z,11.97
2022-12-12T01:31:53.307Z,13.10
2022-12-12T01:34:20.336Z,9.17
2022-12-12T01:36:47.285Z,9.57
2022-12-12T01:39:14.258Z,11.17
2022-12-12T01:41:43.857Z,11.53
2022-12-12T01:44:51.808Z,11.50
2022-12-12T01:47:24.477Z,10.27
2022-12-12T01:50:12.316Z,10.37
2022-12-12T01:52:47.323Z,12.27
2022-12-12T01:55:22.253Z,11.93
2022-12-12T01:57:53.731Z,12.00
2022-12-12T02:00:21.302Z,11.27
2022-12-12T02:02:48.612Z,12.30
2022-12-12T02:05:26.303Z,10.23
2022-12-12T02:07:54.535Z,11.73
2022-12-12T02:10:21.958Z,10.83
2022-12-12T02:12:48.948Z,8.40
2022-12-12T02:15:17.212Z,10.83
2022-12-12T02:18:12.408Z,12.80
2022-12-12T02:21:06.292Z,11.13
2022-12-12T02:24:26.747Z,10.40
2022-12-12T02:27:30.733Z,11.30
2022-12-12T02:30:21.515Z,10.80
2022-12-12T02:33:06.822Z,10.27
2022-12-12T02:36:10.074Z,12.40
2022-12-12T02:39:12.263Z,12.23
2022-12-12T02:41:49.717Z,10.30
2022-12-12T02:45:13.917Z,10.73
2022-12-12T02:47:49.267Z,11.20
2022-12-12T02:50:25.498Z,10.60
2022-12-12T02:52:52.503Z,10.70
2022-12-12T02:55:19.639Z,10.77
2022-12-12T02:57:49.173Z,11.07
2022-12-12T03:00:21.692Z,10.90
2022-12-12T03:03:56.496Z,11.33
2022-12-12T03:07:29.953Z,11.00
2022-12-12T03:10:10.673Z,9.33
2022-12-12T03:13:00.932Z,9.83
2022-12-12T03:16:11.981Z,11.90
2022-12-12T03:19:24.438Z,12.73
2022-12-12T03:22:12.483Z,11.10
2022-12-12T03:24:47.422Z,11.70
2022-12-12T03:27:38.293Z,11.37
2022-12-12T03:30:14.809Z,11.20
2022-12-12T03:32:52.143Z,12.30
2022-12-12T03:35:34.303Z,10.20
2022-12-12T03:38:29.315Z,9.87
2022-12-12T03:41:00.765Z,10.80
2022-12-12T03:43:34.339Z,13.07
2022-12-12T03:46:32.987Z,12.43
2022-12-12T03:49:40.841Z,12.50
2022-12-12T03:52:21.613Z,11.10
2022-12-12T03:55:01.460Z,11.27
2022-12-12T03:57:39.181Z,12.20
2022-12-12T04:00:10.779Z,13.43
2022-12-12T04:03:03.944Z,13.27
2022-12-12T04:06:05.327Z,13.23
2022-12-12T04:08:33.893Z,12.50
2022-12-12T04:11:26.881Z,13.67
2022-12-12T04:14:09.218Z,12.83
2022-12-12T04:16:43.112Z,11.83
2022-12-12T04:19:56.595Z,14.73
2022-12-12T04:22:47.394Z,13.30
2022-12-12T04:26:28.738Z,13.93
2022-12-12T04:29:34.013Z,11.80
2022-12-12T04:32:37.999Z,13.13
2022-12-12T04:35:18.889Z,14.57
2022-12-12T04:37:58.469Z,14.37
2022-12-12T04:40:31.563Z,13.47
2022-12-12T04:43:05.683Z,10.70
2022-12-12T04:45:39.333Z,14.63
2022-12-12T04:48:10.313Z,13.13
2022-12-12T04:50:38.607Z,13.40
2022-12-12T04:53:18.056Z,12.07
2022-12-12T04:55:52.843Z,13.63
2022-12-12T04:58:20.077Z,13.20
2022-12-12T05:01:16.841Z,13.07
2022-12-12T05:03:59.853Z,14.90
2022-12-12T05:06:55.609Z,14.20
2022-12-12T05:09:22.656Z,15.07
2022-12-12T05:11:49.637Z,13.27
2022-12-12T05:14:18.636Z,12.33
2022-12-12T05:16:52.414Z,15.93
2022-12-12T05:19:19.637Z,14.63
2022-12-12T05:21:46.574Z,10.33
2022-12-12T05:24:13.723Z,15.13
2022-12-12T05:26:41.399Z,16.30
2022-12-12T05:29:08.630Z,12.20
2022-12-12T05:31:36.254Z,13.40
2022-12-12T05:34:04.779Z,16.00
2022-12-12T05:36:31.772Z,11.40
2022-12-12T05:38:58.802Z,11.17
2022-12-12T05:41:25.753Z,11.70
2022-12-12T05:43:52.741Z,15.63
2022-12-12T05:46:19.711Z,13.67
2022-12-12T05:48:51.018Z,15.90
2022-12-12T05:51:19.159Z,11.40
2022-12-12T05:53:47.479Z,14.10
2022-12-12T05:56:14.426Z,16.40
2022-12-12T05:58:42.958Z,10.83
2022-12-12T06:01:10.778Z,15.80
2022-12-12T06:03:37.860Z,12.53
2022-12-12T06:06:05.203Z,16.03
2022-12-12T06:08:32.309Z,14.87
2022-12-12T06:10:59.268Z,17.27
2022-12-12T06:13:26.206Z,16.17
2022-12-12T06:15:53.235Z,15.30
2022-12-12T06:18:20.258Z,16.50
2022-12-12T06:20:47.213Z,18.77
2022-12-12T06:23:14.176Z,19.97
2022-12-12T06:25:41.204Z,13.50
2022-12-12T06:28:08.298Z,12.17
2022-12-12T06:30:35.283Z,16.77
2022-12-12T06:33:02.231Z,17.13
2022-12-12T06:35:29.259Z,17.70
2022-12-12T06:37:56.276Z,18.53
2022-12-12T06:40:23.302Z,14.47
2022-12-12T06:42:50.253Z,15.93
2022-12-12T06:45:18.081Z,16.87
2022-12-12T06:47:44.996Z,18.40
2022-12-12T06:50:12.156Z,15.60
2022-12-12T06:52:39.607Z,18.10
2022-12-12T06:55:06.878Z,16.83
2022-12-12T06:57:34.762Z,16.60
2022-12-12T07:00:01.925Z,16.57
2022-12-12T07:02:30.277Z,16.23
2022-12-12T07:04:58.562Z,16.63
2022-12-12T07:07:25.659Z,15.87
2022-12-12T07:09:52.697Z,15.87
2022-12-12T07:12:19.733Z,15.97
2022-12-12T07:14:46.724Z,14.97
2022-12-12T07:17:13.818Z,17.13
2022-12-12T07:19:40.768Z,15.50
2022-12-12T07:22:10.207Z,15.23
2022-12-12T07:24:38.473Z,15.37
2022-12-12T07:27:07.003Z,14.20
2022-12-12T07:29:34.092Z,14.67
2022-12-12T07:32:01.103Z,13.37
2022-12-12T07:34:30.973Z,14.20
2022-12-12T07:37:02.584Z,14.80
2022-12-12T07:39:34.739Z,12.60
2022-12-12T07:42:01.697Z,14.97
2022-12-12T07:44:34.667Z,15.50
2022-12-12T07:47:02.480Z,13.43
2022-12-12T07:49:30.239Z,14.37
2022-12-12T07:51:57.134Z,14.67
2022-12-12T07:54:24.194Z,13.73
2022-12-12T07:56:51.149Z,15.80
2022-12-12T07:59:18.005Z,14.40
2022-12-12T08:01:45.011Z,12.93
2022-12-12T08:04:12.002Z,13.55
2022-12-12T08:06:38.918Z,12.90
2022-12-12T08:09:06.035Z,12.53
2022-12-12T08:11:32.966Z,11.57
2022-12-12T08:14:00.381Z,12.03
2022-12-12T08:16:30.289Z,12.23
2022-12-12T08:18:58.713Z,12.20
2022-12-12T08:21:27.183Z,10.83
2022-12-12T08:23:59.446Z,10.47
2022-12-12T08:26:27.793Z,13.40
2022-12-12T08:28:56.519Z,9.27
2022-12-12T08:31:24.010Z,10.10
2022-12-12T08:33:51.386Z,9.37
2022-12-12T08:36:31.562Z,8.13
2022-12-12T08:39:10.918Z,7.43
2022-12-12T08:41:41.464Z,10.80
2022-12-12T08:44:11.031Z,11.93
2022-12-12T08:46:39.277Z,15.50
2022-12-12T08:49:07.983Z,8.03
2022-12-12T08:51:38.103Z,7.77
2022-12-12T08:54:05.199Z,11.67
2022-12-12T08:56:34.965Z,10.37
2022-12-12T08:59:02.909Z,10.30
2022-12-12T09:01:29.873Z,11.73
2022-12-12T09:03:57.942Z,9.00
2022-12-12T09:06:26.578Z,9.93
2022-12-12T09:08:53.990Z,11.80
2022-12-12T09:11:21.086Z,11.43
2022-12-12T09:13:47.986Z,10.60
2022-12-12T09:16:15.316Z,11.07
2022-12-12T09:18:48.722Z,12.97
2022-12-12T09:21:17.343Z,11.97
2022-12-12T09:23:44.591Z,8.20
2022-12-12T09:26:12.197Z,12.03
2022-12-12T09:28:39.661Z,12.60
2022-12-12T09:31:09.477Z,10.67
2022-12-12T09:33:37.031Z,9.10
2022-12-12T09:36:08.181Z,10.40
2022-12-12T09:38:36.557Z,8.20
2022-12-12T09:41:21.364Z,12.03
2022-12-12T09:44:10.027Z,11.07
2022-12-12T09:46:55.763Z,10.30
2022-12-12T09:49:47.079Z,12.20
2022-12-12T09:52:24.071Z,11.77
2022-12-12T09:54:54.846Z,9.70
2022-12-12T09:57:46.729Z,13.37
2022-12-12T10:00:16.878Z,10.30
2022-12-12T10:02:54.816Z,8.80
2022-12-12T10:06:13.512Z,12.90
2022-12-12T10:09:16.442Z,10.67
2022-12-12T10:11:55.912Z,13.10
2022-12-12T10:14:39.860Z,15.10
2022-12-12T10:17:23.333Z,14.50
2022-12-12T10:20:00.486Z,13.40
2022-12-12T10:22:41.468Z,10.17
2022-12-12T10:25:53.229Z,10.60
2022-12-12T10:28:24.975Z,10.60
2022-12-12T10:31:16.319Z,9.40
2022-12-12T10:33:52.144Z,12.50
2022-12-12T10:36:44.833Z,12.90
2022-12-12T10:39:24.531Z,9.37
2022-12-12T10:42:29.881Z,9.20
2022-12-12T10:45:17.703Z,10.27
2022-12-12T10:47:45.983Z,12.27
2022-12-12T10:50:48.405Z,12.40
2022-12-12T10:53:15.822Z,10.70
2022-12-12T10:55:59.696Z,11.23
2022-12-12T10:58:30.324Z,8.93
2022-12-12T11:01:12.113Z,9.37
2022-12-12T11:03:51.479Z,10.00
2022-12-12T11:06:46.584Z,10.60
2022-12-12T11:09:31.696Z,12.83
2022-12-12T11:12:04.655Z,12.30
2022-12-12T11:14:49.825Z,11.97
2022-12-12T11:17:26.945Z,11.50
2022-12-12T11:19:57.767Z,11.17
2022-12-12T11:22:27.255Z,11.87
2022-12-12T11:24:54.745Z,11.50
2022-12-12T11:27:31.755Z,10.40
2022-12-12T11:30:04.757Z,10.83
2022-12-12T11:32:41.712Z,10.47
2022-12-12T11:35:27.245Z,6.87
2022-12-12T11:38:21.003Z,10.77
2022-12-12T11:41:00.283Z,10.33
2022-12-12T11:43:33.073Z,6.30
2022-12-12T11:46:34.702Z,9.73
2022-12-12T11:49:04.902Z,7.37
2022-12-12T11:51:36.579Z,9.27
2022-12-12T11:54:10.477Z,10.27
2022-12-12T11:56:40.139Z,9.40
2022-12-12T11:59:25.471Z,12.20
2022-12-12T12:02:10.085Z,10.53
2022-12-12T12:05:00.825Z,10.20
2022-12-12T12:08:01.212Z,8.50
2022-12-12T12:10:54.383Z,10.13
2022-12-12T12:13:52.018Z,8.33
2022-12-12T12:16:56.305Z,9.73
2022-12-12T12:19:41.300Z,8.10
2022-12-12T12:22:35.906Z,7.50
2022-12-12T12:25:41.432Z,5.40
2022-12-12T12:29:02.962Z,6.60
2022-12-12T12:32:10.761Z,6.13
2022-12-12T12:35:04.084Z,8.00
2022-12-12T12:38:03.387Z,7.07
2022-12-12T12:41:28.718Z,5.33
2022-12-12T12:44:20.581Z,6.53
2022-12-12T12:46:56.266Z,9.50
2022-12-12T12:49:31.919Z,9.57
2022-12-12T12:52:07.660Z,7.33
2022-12-12T12:54:40.878Z,12.03
2022-12-12T12:57:36.096Z,11.47
2022-12-12T13:00:35.296Z,14.10
2022-12-12T13:03:18.998Z,13.43
2022-12-12T13:05:52.700Z,7.07
2022-12-12T13:08:59.934Z,13.27
2022-12-12T13:11:40.695Z,16.10
2022-12-12T13:14:52.125Z,6.80
2022-12-12T13:17:26.024Z,14.33
2022-12-12T13:19:57.205Z,10.20
2022-12-12T13:23:05.516Z,13.07
2022-12-12T13:25:39.474Z,12.13
2022-12-12T13:28:18.271Z,12.80
2022-12-12T13:31:06.798Z,10.40
2022-12-12T13:33:47.507Z,13.83
2022-12-12T13:36:29.645Z,14.90
2022-12-12T13:39:01.234Z,15.30
2022-12-12T13:41:55.593Z,14.77
2022-12-12T13:44:47.765Z,10.13
2022-12-12T13:47:23.874Z,16.27
2022-12-12T13:50:02.832Z,13.77
2022-12-12T13:52:34.674Z,15.90
2022-12-12T13:55:13.604Z,15.33
2022-12-12T13:58:02.873Z,16.37
2022-12-12T14:00:40.836Z,14.03
2022-12-12T14:03:10.508Z,15.10
2022-12-12T14:05:44.997Z,14.50
2022-12-12T14:08:11.914Z,15.87
2022-12-12T14:10:45.928Z,13.30
2022-12-12T14:13:21.713Z,13.10
2022-12-12T14:16:07.349Z,17.73
2022-12-12T14:19:02.167Z,13.63
2022-12-12T14:21:48.587Z,12.10
2022-12-12T14:24:33.785Z,13.57
2022-12-12T14:27:11.968Z,10.37
2022-12-12T14:29:45.180Z,9.03
2022-12-12T14:32:12.137Z,10.33
2022-12-12T14:35:16.511Z,10.17
2022-12-12T14:37:59.855Z,12.40
2022-12-12T14:40:38.673Z,11.00
2022-12-12T14:43:25.374Z,10.63
2022-12-12T14:45:55.000Z,13.03
2022-12-12T14:48:35.611Z,12.07
2022-12-12T14:51:30.037Z,9.90
2022-12-12T14:53:59.707Z,12.40
2022-12-12T14:56:42.527Z,11.90
2022-12-12T14:59:33.184Z,10.57
2022-12-12T15:02:16.698Z,11.10
2022-12-12T15:04:49.607Z,12.00
2022-12-12T15:07:32.669Z,12.77
2022-12-12T15:09:59.731Z,12.70
2022-12-12T15:12:34.916Z,17.10
2022-12-12T15:15:05.350Z,14.37
2022-12-12T15:17:43.082Z,15.07
2022-12-12T15:20:27.402Z,15.87
2022-12-12T15:22:58.873Z,14.60
2022-12-12T15:25:44.081Z,15.40
2022-12-12T15:28:17.580Z,14.83
2022-12-12T15:31:03.796Z,15.20
2022-12-12T15:33:39.174Z,12.47
2022-12-12T15:36:25.532Z,14.40
2022-12-12T15:39:15.940Z,16.30
2022-12-12T15:41:45.160Z,15.07
2022-12-12T15:44:20.522Z,14.30
2022-12-12T15:46:50.636Z,15.37
2022-12-12T15:49:42.162Z,15.00
2022-12-12T15:52:30.071Z,11.10
2022-12-12T15:55:00.510Z,16.43
2022-12-12T15:57:32.926Z,15.90
2022-12-12T16:00:08.910Z,15.43
2022-12-12T16:02:36.194Z,15.27
2022-12-12T16:05:18.291Z,15.40
2022-12-12T16:07:45.929Z,16.47
2022-12-12T16:10:20.232Z,14.40
2022-12-12T16:13:04.193Z,14.93
2022-12-12T16:15:37.497Z,17.20
2022-12-12T16:18:24.663Z,14.97
2022-12-12T16:20:57.019Z,15.23
2022-12-12T16:23:33.376Z,16.40
2022-12-12T16:26:00.654Z,16.40
2022-12-12T16:28:30.674Z,17.20
2022-12-12T16:31:04.032Z,16.30
2022-12-12T16:33:40.082Z,16.87
2022-12-12T16:36:13.748Z,14.90
2022-12-12T16:38:41.425Z,16.73
2022-12-12T16:41:13.628Z,16.83
2022-12-12T16:43:42.237Z,17.30
2022-12-12T16:46:23.331Z,17.40
2022-12-12T16:48:51.347Z,17.37
2022-12-12T16:51:26.176Z,15.67
2022-12-12T16:53:53.126Z,15.23
2022-12-12T16:56:20.319Z,16.90
2022-12-12T16:58:48.040Z,15.83
2022-12-12T17:01:17.253Z,16.23
2022-12-12T17:03:44.445Z,16.83
2022-12-12T17:06:11.884Z,17.20
2022-12-12T17:08:39.136Z,19.40
2022-12-12T17:11:10.704Z,20.07
2022-12-12T17:13:42.939Z,21.10
2022-12-12T17:16:09.961Z,21.50
2022-12-12T17:18:36.847Z,25.20
2022-12-12T17:21:05.685Z,25.77
2022-12-12T17:23:34.961Z,25.27
2022-12-12T17:26:04.913Z,24.30
2022-12-12T17:28:34.381Z,22.40
2022-12-12T17:31:02.485Z,23.67
2022-12-12T17:33:29.579Z,23.20
2022-12-12T17:36:01.149Z,26.23
2022-12-12T17:38:30.679Z,24.07
2022-12-12T17:40:59.079Z,22.17
2022-12-12T17:43:26.449Z,24.67
2022-12-12T17:46:07.058Z,25.73
2022-12-12T17:48:35.912Z,22.97
2022-12-12T17:51:06.252Z,22.70
2022-12-12T17:53:38.439Z,22.07
2022-12-12T17:56:15.050Z,22.10
2022-12-12T17:58:45.274Z,20.67
2022-12-12T18:01:20.849Z,19.90
2022-12-12T18:03:48.882Z,20.37
2022-12-12T18:06:16.756Z,20.87
2022-12-12T18:08:44.795Z,19.83
2022-12-12T18:11:18.740Z,18.07
2022-12-12T18:13:48.645Z,17.57
2022-12-12T18:16:16.217Z,16.07
2022-12-12T18:18:43.681Z,16.80
2022-12-12T18:21:35.883Z,16.60
2022-12-12T18:24:04.969Z,14.90
2022-12-12T18:26:32.201Z,15.90
2022-12-12T18:29:03.248Z,14.53
2022-12-12T18:31:31.821Z,14.90
2022-12-12T18:33:59.697Z,15.40
2022-12-12T18:36:30.207Z,17.80
2022-12-12T18:39:00.355Z,16.27
2022-12-12T18:41:28.821Z,18.40
2022-12-12T18:43:56.701Z,17.47
2022-12-12T18:46:27.054Z,18.60
2022-12-12T18:48:54.688Z,17.33
2022-12-12T18:51:25.969Z,16.90
2022-12-12T18:53:59.454Z,18.43
2022-12-12T18:56:33.436Z,17.50
2022-12-12T18:59:09.791Z,19.27
2022-12-12T19:01:39.377Z,21.00
2022-12-12T19:04:21.206Z,22.40
2022-12-12T19:06:52.153Z,20.77
2022-12-12T19:09:22.662Z,24.90
2022-12-12T19:12:00.044Z,24.33
2022-12-12T19:14:40.417Z,18.47
2022-12-12T19:17:20.742Z,18.47
2022-12-12T19:19:57.281Z,16.90
2022-12-12T19:22:45.010Z,17.47
2022-12-12T19:25:26.994Z,20.60
2022-12-12T19:28:03.848Z,21.33
2022-12-12T19:30:40.863Z,20.93
2022-12-12T19:33:11.560Z,20.57
2022-12-12T19:35:50.350Z,19.90
2022-12-12T19:38:26.397Z,14.43
2022-12-12T19:41:09.925Z,14.30
2022-12-12T19:43:41.762Z,14.80
2022-12-12T19:46:29.242Z,14.20
2022-12-12T19:49:13.169Z,14.40
2022-12-12T19:51:50.211Z,13.20
2022-12-12T19:54:21.259Z,15.63
2022-12-12T19:56:57.356Z,13.23
2022-12-12T19:59:29.988Z,14.27
2022-12-12T20:02:09.899Z,12.73
2022-12-12T20:04:43.043Z,13.10
2022-12-12T20:07:14.961Z,13.70
2022-12-12T20:09:44.341Z,14.60
2022-12-12T20:12:22.992Z,13.90
2022-12-12T20:14:56.613Z,14.47
2022-12-12T20:17:29.501Z,12.90
2022-12-12T20:20:12.189Z,14.30
2022-12-12T20:22:42.864Z,14.37
2022-12-12T20:25:16.940Z,16.90
2022-12-12T20:27:47.323Z,20.93
2022-12-12T20:30:26.111Z,14.77
2022-12-12T20:32:54.260Z,14.93
2022-12-12T20:35:35.486Z,13.50
2022-12-12T20:38:11.301Z,14.70
2022-12-12T20:40:40.569Z,14.47
2022-12-12T20:43:07.451Z,12.30
2022-12-12T20:45:38.511Z,11.63
2022-12-12T20:48:08.093Z,13.27
2022-12-12T20:50:36.471Z,12.40
2022-12-12T20:53:03.621Z,11.77
2022-12-12T20:55:37.266Z,10.50
2022-12-12T20:58:05.340Z,13.13
2022-12-12T21:00:37.133Z,13.00
2022-12-12T21:03:04.725Z,10.60
2022-12-12T21:05:31.682Z,10.83
2022-12-12T21:07:58.814Z,12.50
2022-12-12T21:10:26.171Z,12.50
2022-12-12T21:12:53.100Z,12.87
2022-12-12T21:15:21.862Z,12.70
2022-12-12T21:17:49.750Z,13.10
2022-12-12T21:20:16.815Z,13.67
2022-12-12T21:22:43.835Z,14.30
2022-12-12T21:25:10.941Z,14.80
2022-12-12T21:27:38.106Z,13.60
2022-12-12T21:30:05.790Z,12.00
2022-12-12T21:32:32.740Z,12.97
2022-12-12T21:34:59.770Z,13.33
2022-12-12T21:37:26.717Z,11.80
2022-12-12T21:39:54.769Z,12.40
2022-12-12T21:42:21.836Z,11.47
2022-12-12T21:44:49.082Z,12.67
2022-12-12T21:47:16.099Z,10.80
2022-12-12T21:49:43.071Z,10.40
2022-12-12T21:52:10.420Z,10.47
2022-12-12T21:54:37.389Z,10.03
2022-12-12T21:57:04.699Z,11.63
2022-12-12T21:59:31.811Z,8.83
2022-12-12T22:02:00.841Z,9.87
2022-12-12T22:04:29.078Z,9.73
2022-12-12T22:06:57.395Z,7.60
2022-12-12T22:09:25.002Z,9.53
2022-12-12T22:12:03.839Z,11.33
2022-12-12T22:14:34.142Z,9.27
2022-12-12T22:17:05.423Z,8.97
2022-12-12T22:19:32.416Z,10.00
2022-12-12T22:21:59.625Z,8.33
2022-12-12T22:24:26.664Z,9.57
2022-12-12T22:26:54.108Z,8.83
2022-12-12T22:29:21.388Z,9.10
2022-12-12T22:31:50.323Z,9.07
2022-12-12T22:34:22.014Z,9.10
2022-12-12T22:36:50.015Z,9.00
2022-12-12T22:39:26.663Z,8.27
2022-12-12T22:41:55.337Z,7.07
2022-12-12T22:44:24.452Z,9.57
2022-12-12T22:46:54.824Z,7.63
2022-12-12T22:49:28.323Z,8.60
2022-12-12T22:51:58.417Z,7.10
2022-12-12T22:54:26.548Z,6.80
2022-12-12T22:56:54.079Z,6.50
2022-12-12T22:59:21.169Z,6.80
2022-12-12T23:01:48.172Z,7.20
2022-12-12T23:04:15.555Z,8.40
2022-12-12T23:06:43.773Z,6.83
2022-12-12T23:09:19.006Z,6.43
2022-12-12T23:11:46.713Z,6.77
2022-12-12T23:14:18.503Z,6.60
2022-12-12T23:16:46.537Z,8.10
2022-12-12T23:19:17.448Z,7.17
2022-12-12T23:21:45.020Z,8.27
2022-12-12T23:24:12.481Z,7.30
2022-12-12T23:26:40.137Z,7.50
2022-12-12T23:29:09.759Z,9.80
2022-12-12T23:31:39.029Z,8.70
2022-12-12T23:34:18.028Z,7.77
2022-12-12T23:36:45.087Z,8.13
2022-12-12T23:39:13.883Z,7.87
2022-12-12T23:41:41.399Z,6.30
2022-12-12T23:44:09.815Z,6.30
2022-12-12T23:46:37.474Z,6.53
2022-12-12T23:49:10.404Z,7.23
2022-12-12T23:51:41.435Z,8.10
2022-12-12T23:54:13.376Z,6.93
2022-12-12T23:56:40.814Z,6.33
2022-12-12T23:59:11.627Z,6.77
